createdAt,value
2019-02-28T00:01:31.325Z,41.40
2019-02-28T00:04:01.600Z,40.88
2019-02-28T00:06:31.728Z,42.17
2019-02-28T00:09:01.968Z,40.90
2019-02-28T00:11:39.004Z,41.83
2019-02-28T00:14:05.982Z,40.78
2019-02-28T00:16:36.409Z,41.53
2019-02-28T00:19:06.867Z,41.65
2019-02-28T00:21:37.331Z,41.05
2019-02-28T00:24:08.918Z,42.98
2019-02-28T00:26:39.255Z,43.23
2019-02-28T00:29:09.601Z,41.30
2019-02-28T00:31:39.927Z,41.65
2019-02-28T00:34:10.283Z,40.98
2019-02-28T00:36:40.385Z,39.60
2019-02-28T00:39:10.636Z,39.25
2019-02-28T00:41:44.472Z,40.40
2019-02-28T00:44:13.015Z,41.02
2019-02-28T00:46:45.151Z,40.45
2019-02-28T00:49:15.018Z,40.43
2019-02-28T00:51:45.286Z,41.45
2019-02-28T00:54:15.613Z,40.33
2019-02-28T00:56:51.599Z,41.58
2019-02-28T00:59:18.150Z,40.63
2019-02-28T01:01:48.237Z,40.35
2019-02-28T01:04:18.495Z,40.15
2019-02-28T01:06:48.976Z,40.67
2019-02-28T01:09:19.319Z,42.05
2019-02-28T01:11:49.651Z,39.83
2019-02-28T01:14:20.013Z,40.63
2019-02-28T01:16:53.012Z,39.90
2019-02-28T01:19:22.360Z,40.28
2019-02-28T01:21:55.412Z,40.67
2019-02-28T01:24:27.269Z,41.83
2019-02-28T01:26:57.297Z,41.73
2019-02-28T01:29:27.576Z,40.38
2019-02-28T01:31:57.895Z,42.55
2019-02-28T01:34:29.133Z,41.63
2019-02-28T01:37:00.337Z,41.10
2019-02-28T01:39:30.817Z,41.70
2019-02-28T01:42:01.304Z,39.30
2019-02-28T01:44:35.578Z,40.45
2019-02-28T01:47:03.445Z,38.30
2019-02-28T01:49:34.531Z,37.73
2019-02-28T01:52:09.632Z,38.75
2019-02-28T01:54:36.853Z,37.58
2019-02-28T01:57:08.992Z,35.50
2019-02-28T01:59:38.863Z,37.03
2019-02-28T02:02:09.200Z,36.23
2019-02-28T02:04:43.166Z,36.25
2019-02-28T02:07:12.486Z,35.75
2019-02-28T02:09:42.628Z,34.95
2019-02-28T02:12:14.194Z,35.95
2019-02-28T02:14:45.667Z,36.60
2019-02-28T02:17:16.234Z,36.53
2019-02-28T02:19:49.329Z,35.20
2019-02-28T02:22:18.588Z,34.92
2019-02-28T02:24:48.912Z,35.52
2019-02-28T02:27:19.495Z,36.58
2019-02-28T02:29:51.009Z,34.38
2019-02-28T02:32:21.337Z,36.28
2019-02-28T02:34:51.443Z,35.98
2019-02-28T02:37:21.687Z,36.58
2019-02-28T02:39:52.012Z,36.33
2019-02-28T02:42:22.100Z,36.50
2019-02-28T02:44:52.096Z,35.43
2019-02-28T02:47:24.017Z,35.75
2019-02-28T02:49:57.446Z,36.05
2019-02-28T02:52:30.277Z,34.50
2019-02-28T02:54:57.916Z,34.85
2019-02-28T02:57:28.159Z,34.63
2019-02-28T02:59:58.248Z,35.95
2019-02-28T03:02:28.809Z,34.48
2019-02-28T03:04:59.969Z,33.78
2019-02-28T03:07:30.225Z,34.18
2019-02-28T03:10:00.482Z,34.23
2019-02-28T03:12:31.570Z,32.05
2019-02-28T03:15:02.609Z,33.38
2019-02-28T03:17:33.774Z,33.08
2019-02-28T03:20:07.336Z,32.48
2019-02-28T03:22:38.054Z,32.40
2019-02-28T03:25:11.729Z,34.40
2019-02-28T03:27:41.747Z,32.53
2019-02-28T03:30:28.912Z,31.25
2019-02-28T03:32:51.554Z,32.58
2019-02-28T03:35:21.932Z,33.05
2019-02-28T03:37:52.269Z,32.80
2019-02-28T03:40:22.620Z,32.17
2019-02-28T03:42:52.742Z,32.08
2019-02-28T03:45:22.732Z,32.00
2019-02-28T03:47:58.395Z,30.97
2019-02-28T03:50:24.782Z,31.70
2019-02-28T03:52:54.953Z,31.15
2019-02-28T03:55:24.970Z,30.50
2019-02-28T03:57:55.236Z,29.20
2019-02-28T04:00:32.635Z,28.00
2019-02-28T04:02:59.065Z,31.30
2019-02-28T04:05:29.817Z,31.17
2019-02-28T04:07:59.880Z,28.15
2019-02-28T04:10:29.884Z,29.60
2019-02-28T04:12:59.898Z,27.93
2019-02-28T04:15:30.491Z,28.57
2019-02-28T04:18:06.892Z,29.70
2019-02-28T04:20:37.596Z,29.27
2019-02-28T04:23:04.884Z,28.02
2019-02-28T04:25:35.336Z,26.60
2019-02-28T04:28:05.509Z,28.47
2019-02-28T04:30:42.635Z,28.95
2019-02-28T04:33:07.560Z,27.35
2019-02-28T04:35:37.827Z,27.48
2019-02-28T04:38:08.174Z,25.20
2019-02-28T04:40:38.539Z,27.85
2019-02-28T04:43:10.082Z,26.80
2019-02-28T04:45:41.266Z,27.10
2019-02-28T04:48:13.887Z,27.48
2019-02-28T04:50:43.305Z,26.97
2019-02-28T04:53:13.406Z,27.20
2019-02-28T04:55:43.472Z,26.10
2019-02-28T04:58:13.466Z,27.02
2019-02-28T05:00:43.466Z,25.88
2019-02-28T05:03:13.627Z,28.17
2019-02-28T05:05:46.369Z,26.37
2019-02-28T05:08:15.923Z,26.77
2019-02-28T05:10:46.041Z,26.25
2019-02-28T05:13:16.296Z,25.45
2019-02-28T05:15:46.683Z,26.68
2019-02-28T05:18:16.746Z,26.27
2019-02-28T05:20:47.010Z,25.08
2019-02-28T05:23:17.076Z,24.35
2019-02-28T05:25:49.059Z,23.92
2019-02-28T05:28:18.790Z,24.50
2019-02-28T05:30:50.171Z,23.87
2019-02-28T05:33:20.681Z,25.32
2019-02-28T05:35:50.940Z,23.30
2019-02-28T05:38:22.567Z,24.57
2019-02-28T05:40:53.034Z,24.67
2019-02-28T05:43:25.002Z,25.48
2019-02-28T05:45:55.270Z,24.35
2019-02-28T05:48:25.597Z,24.20
2019-02-28T05:50:55.928Z,23.30
2019-02-28T05:53:26.009Z,23.52
2019-02-28T05:55:58.683Z,25.00
2019-02-28T05:58:28.001Z,24.70
2019-02-28T06:00:58.197Z,24.10
2019-02-28T06:03:29.496Z,24.20
2019-02-28T06:05:59.976Z,25.20
2019-02-28T06:08:30.402Z,23.75
2019-02-28T06:11:01.422Z,25.10
2019-02-28T06:13:31.860Z,24.05
2019-02-28T06:16:02.184Z,24.60
2019-02-28T06:18:33.521Z,23.75
2019-02-28T06:21:03.950Z,22.55
2019-02-28T06:23:34.278Z,24.52
2019-02-28T06:26:04.400Z,23.42
2019-02-28T06:28:34.384Z,22.93
2019-02-28T06:31:04.402Z,23.10
2019-02-28T06:33:34.531Z,23.55
2019-02-28T06:36:04.783Z,22.07
2019-02-28T06:38:34.838Z,22.58
2019-02-28T06:41:07.618Z,23.75
2019-02-28T06:43:37.642Z,24.07
2019-02-28T06:46:08.529Z,22.40
2019-02-28T06:48:40.582Z,23.45
2019-02-28T06:51:10.911Z,23.60
2019-02-28T06:53:41.780Z,23.65
2019-02-28T06:56:12.858Z,22.73
2019-02-28T06:58:44.216Z,22.67
2019-02-28T07:01:14.555Z,23.70
2019-02-28T07:03:53.279Z,22.40
2019-02-28T07:06:16.686Z,22.62
2019-02-28T07:08:46.884Z,22.48
2019-02-28T07:11:19.930Z,22.62
2019-02-28T07:13:49.161Z,22.77
2019-02-28T07:16:19.284Z,21.95
2019-02-28T07:18:52.945Z,22.27
2019-02-28T07:21:23.471Z,21.77
2019-02-28T07:23:53.576Z,23.10
2019-02-28T07:26:23.612Z,21.65
2019-02-28T07:28:53.887Z,22.20
2019-02-28T07:31:24.671Z,21.30
2019-02-28T07:33:59.002Z,22.27
2019-02-28T07:36:29.573Z,22.90
2019-02-28T07:39:01.337Z,21.33
2019-02-28T07:41:33.607Z,22.13
2019-02-28T07:44:05.287Z,21.60
2019-02-28T07:46:35.398Z,22.75
2019-02-28T07:49:05.448Z,22.35
2019-02-28T07:51:35.462Z,22.52
2019-02-28T07:54:05.605Z,21.87
2019-02-28T07:56:42.737Z,21.42
2019-02-28T07:59:08.602Z,22.45
2019-02-28T08:01:38.894Z,23.00
2019-02-28T08:04:11.972Z,22.48
2019-02-28T08:06:43.332Z,23.38
2019-02-28T08:09:27.932Z,23.62
2019-02-28T08:11:57.997Z,22.93
2019-02-28T08:14:28.029Z,22.90
2019-02-28T08:17:00.658Z,24.37
2019-02-28T08:19:30.947Z,23.12
2019-02-28T08:22:01.065Z,24.05
2019-02-28T08:24:31.912Z,24.52
2019-02-28T08:27:03.618Z,23.87
2019-02-28T08:29:35.561Z,23.60
2019-02-28T08:32:07.815Z,25.35
2019-02-28T08:34:37.376Z,23.65
2019-02-28T08:37:08.334Z,26.00
2019-02-28T08:39:41.177Z,26.23
2019-02-28T08:42:10.712Z,25.90
2019-02-28T08:44:42.523Z,24.87
2019-02-28T08:47:12.818Z,25.62
2019-02-28T08:49:45.568Z,23.85
2019-02-28T08:52:16.099Z,26.05
2019-02-28T08:54:47.795Z,25.72
2019-02-28T08:57:17.823Z,24.05
2019-02-28T08:59:48.093Z,24.67
2019-02-28T09:02:19.052Z,23.85
2019-02-28T09:04:51.044Z,24.45
2019-02-28T09:07:21.136Z,24.43
2019-02-28T09:09:51.144Z,23.25
2019-02-28T09:12:21.413Z,23.32
2019-02-28T09:14:51.979Z,22.62
2019-02-28T09:17:23.824Z,23.80
2019-02-28T09:19:53.889Z,23.75
2019-02-28T09:22:27.006Z,23.00
2019-02-28T09:24:56.960Z,22.80
2019-02-28T09:27:28.687Z,23.90
2019-02-28T09:29:58.699Z,23.20
2019-02-28T09:32:29.883Z,24.05
2019-02-28T09:35:02.520Z,24.65
2019-02-28T09:37:33.853Z,25.12
2019-02-28T09:40:05.570Z,25.90
2019-02-28T09:42:36.053Z,24.32
2019-02-28T09:45:11.992Z,25.25
2019-02-28T09:47:42.276Z,26.12
2019-02-28T09:50:19.397Z,25.70
2019-02-28T09:52:49.821Z,25.77
2019-02-28T09:55:20.390Z,26.70
2019-02-28T09:57:54.840Z,25.52
2019-02-28T10:00:28.617Z,26.30
2019-02-28T10:02:58.972Z,27.13
2019-02-28T10:05:31.833Z,26.07
2019-02-28T10:08:03.067Z,26.85
2019-02-28T10:10:34.111Z,26.35
2019-02-28T10:13:04.342Z,25.75
2019-02-28T10:15:34.684Z,25.85
2019-02-28T10:18:08.192Z,25.48
2019-02-28T10:20:41.796Z,25.77
2019-02-28T10:23:11.872Z,25.67
2019-02-28T10:25:43.672Z,26.80
2019-02-28T10:28:14.048Z,25.05
2019-02-28T10:30:44.087Z,27.82
2019-02-28T10:33:17.394Z,26.97
2019-02-28T10:35:46.169Z,27.52
2019-02-28T10:38:16.515Z,30.43
2019-02-28T10:40:49.317Z,31.45
2019-02-28T10:43:18.893Z,31.57
2019-02-28T10:45:48.973Z,31.85
2019-02-28T10:48:20.680Z,32.15
2019-02-28T10:50:50.720Z,31.23
2019-02-28T10:53:22.809Z,31.05
2019-02-28T10:55:54.474Z,30.08
2019-02-28T10:58:24.549Z,29.57
2019-02-28T11:00:54.575Z,27.58
2019-02-28T11:03:24.582Z,28.47
2019-02-28T11:05:54.634Z,29.23
2019-02-28T11:08:24.899Z,29.42
2019-02-28T11:10:54.972Z,28.35
2019-02-28T11:13:25.255Z,28.25
2019-02-28T11:15:55.330Z,28.32
2019-02-28T11:18:25.665Z,29.37
2019-02-28T11:20:58.141Z,29.57
2019-02-28T11:23:28.396Z,27.58
2019-02-28T11:25:58.428Z,29.65
2019-02-28T11:28:29.839Z,28.12
2019-02-28T11:30:59.860Z,28.40
2019-02-28T11:33:30.861Z,29.15
2019-02-28T11:36:00.937Z,28.65
2019-02-28T11:38:31.212Z,28.00
2019-02-28T11:41:01.573Z,30.50
2019-02-28T11:43:37.554Z,28.77
2019-02-28T11:46:04.341Z,29.40
2019-02-28T11:48:34.466Z,30.30
2019-02-28T11:51:04.745Z,29.72
2019-02-28T11:53:39.275Z,29.60
2019-02-28T11:56:07.085Z,30.12
2019-02-28T11:58:37.631Z,30.05
2019-02-28T12:01:10.624Z,28.57
2019-02-28T12:03:41.078Z,25.30
2019-02-28T12:06:11.093Z,28.92
2019-02-28T12:08:44.540Z,27.93
2019-02-28T12:11:13.159Z,25.97
2019-02-28T12:13:44.237Z,25.85
2019-02-28T12:16:16.209Z,26.77
2019-02-28T12:18:45.998Z,27.17
2019-02-28T12:21:16.074Z,25.70
2019-02-28T12:23:46.344Z,26.77
2019-02-28T12:26:17.729Z,26.33
2019-02-28T12:28:48.404Z,23.85
2019-02-28T12:31:18.494Z,23.30
2019-02-28T12:33:48.511Z,21.97
2019-02-28T12:36:18.520Z,21.97
2019-02-28T12:38:48.808Z,20.88
2019-02-28T12:41:21.585Z,23.38
2019-02-28T12:43:50.884Z,22.60
2019-02-28T12:46:22.772Z,23.12
2019-02-28T12:48:54.618Z,23.92
2019-02-28T12:51:32.417Z,25.65
2019-02-28T12:54:02.764Z,24.80
2019-02-28T12:56:34.731Z,25.97
2019-02-28T12:59:04.934Z,27.75
2019-02-28T13:01:40.313Z,27.52
2019-02-28T13:04:10.685Z,27.85
2019-02-28T13:06:41.653Z,26.68
2019-02-28T13:09:13.588Z,25.32
2019-02-28T13:11:44.824Z,25.57
2019-02-28T13:14:14.914Z,26.12
2019-02-28T13:16:45.198Z,28.20
2019-02-28T13:19:16.433Z,28.35
2019-02-28T13:21:48.113Z,27.20
2019-02-28T13:24:19.674Z,27.85
2019-02-28T13:26:50.021Z,29.45
2019-02-28T13:29:22.069Z,29.25
2019-02-28T13:31:52.086Z,29.48
2019-02-28T13:34:25.246Z,29.60
2019-02-28T13:37:01.992Z,29.90
2019-02-28T13:39:27.377Z,30.02
2019-02-28T13:42:03.127Z,29.72
2019-02-28T13:44:36.296Z,30.68
2019-02-28T13:47:09.049Z,31.65
2019-02-28T13:49:38.459Z,31.05
2019-02-28T13:52:09.092Z,31.62
2019-02-28T13:54:42.142Z,32.40
2019-02-28T13:57:12.583Z,29.35
2019-02-28T13:59:43.076Z,33.45
2019-02-28T14:02:13.705Z,31.05
2019-02-28T14:04:44.375Z,33.25
2019-02-28T14:07:15.337Z,32.55
2019-02-28T14:09:45.719Z,31.73
2019-02-28T14:12:17.001Z,31.80
2019-02-28T14:14:47.916Z,34.95
2019-02-28T14:17:17.946Z,32.30
2019-02-28T14:19:48.608Z,32.00
2019-02-28T14:22:18.689Z,33.10
2019-02-28T14:24:48.958Z,30.30
2019-02-28T14:27:21.598Z,30.45
2019-02-28T14:29:51.395Z,27.15
2019-02-28T14:32:21.744Z,27.50
2019-02-28T14:34:51.773Z,29.20
2019-02-28T14:37:23.142Z,27.75
2019-02-28T14:39:53.489Z,26.97
2019-02-28T14:42:23.825Z,25.43
2019-02-28T14:44:55.236Z,26.10
2019-02-28T14:47:28.521Z,27.45
2019-02-28T14:49:58.274Z,25.05
2019-02-28T14:52:28.534Z,26.50
2019-02-28T14:54:58.913Z,25.45
2019-02-28T14:57:28.988Z,26.85
2019-02-28T15:00:00.042Z,27.13
2019-02-28T15:02:32.230Z,28.50
2019-02-28T15:05:02.588Z,27.73
2019-02-28T15:07:35.341Z,26.45
2019-02-28T15:10:09.484Z,26.90
2019-02-28T15:12:43.527Z,26.30
2019-02-28T15:15:19.557Z,25.92
2019-02-28T15:17:50.184Z,27.05
2019-02-28T15:20:21.886Z,26.68
2019-02-28T15:22:52.486Z,25.45
2019-02-28T15:25:29.492Z,24.98
2019-02-28T15:28:01.934Z,23.87
2019-02-28T15:30:35.097Z,22.48
2019-02-28T15:33:06.068Z,24.18
2019-02-28T15:35:41.346Z,23.42
2019-02-28T15:38:11.634Z,22.77
2019-02-28T15:40:47.053Z,22.55
2019-02-28T15:43:18.421Z,23.30
2019-02-28T15:45:48.950Z,21.73
2019-02-28T15:48:19.150Z,22.32
2019-02-28T15:50:51.931Z,21.82
2019-02-28T15:53:20.872Z,20.35
2019-02-28T15:55:51.916Z,21.87
2019-02-28T15:58:21.923Z,20.77
2019-02-28T16:00:53.754Z,21.35
2019-02-28T16:03:24.017Z,19.80
2019-02-28T16:05:56.213Z,19.48
2019-02-28T16:08:28.331Z,21.30
2019-02-28T16:10:58.923Z,20.12
2019-02-28T16:13:29.113Z,20.48
2019-02-28T16:16:01.193Z,20.80
2019-02-28T16:18:32.080Z,22.45
2019-02-28T16:21:03.497Z,24.43
2019-02-28T16:23:34.093Z,24.18
2019-02-28T16:26:07.767Z,23.20
2019-02-28T16:28:39.548Z,23.25
2019-02-28T16:31:09.641Z,22.27
2019-02-28T16:33:39.931Z,23.62
2019-02-28T16:36:09.989Z,23.60
2019-02-28T16:38:42.428Z,24.10
2019-02-28T16:41:12.051Z,24.20
2019-02-28T16:43:42.319Z,24.55
2019-02-28T16:46:15.481Z,24.20
2019-02-28T16:48:44.726Z,24.45
2019-02-28T16:51:15.090Z,24.20
2019-02-28T16:53:48.876Z,26.52
2019-02-28T16:56:19.344Z,26.05
2019-02-28T16:58:49.338Z,27.67
2019-02-28T17:01:20.601Z,30.27
2019-02-28T17:03:51.302Z,29.12
2019-02-28T17:06:23.024Z,30.10
2019-02-28T17:08:55.343Z,30.97
2019-02-28T17:11:25.587Z,30.52
2019-02-28T17:13:57.509Z,32.15
2019-02-28T17:16:33.744Z,31.52
2019-02-28T17:19:04.647Z,27.82
2019-02-28T17:21:35.077Z,27.82
2019-02-28T17:24:08.649Z,28.30
2019-02-28T17:26:45.301Z,27.58
2019-02-28T17:29:21.531Z,27.55
2019-02-28T17:31:51.985Z,27.37
2019-02-28T17:34:24.524Z,24.63
2019-02-28T17:36:54.665Z,24.80
2019-02-28T17:39:26.258Z,25.12
2019-02-28T17:41:56.325Z,24.85
2019-02-28T17:44:41.870Z,23.62
2019-02-28T17:47:36.676Z,23.15
2019-02-28T17:50:46.977Z,23.50
2019-02-28T17:53:35.231Z,23.57
2019-02-28T17:56:40.767Z,22.50
2019-02-28T17:59:36.075Z,23.65
2019-02-28T18:02:38.142Z,22.75
2019-02-28T18:05:33.804Z,23.67
2019-02-28T18:08:38.467Z,23.83
2019-02-28T18:14:23.071Z,25.95
2019-02-28T18:20:19.530Z,26.50
2019-02-28T18:23:03.739Z,26.33
2019-02-28T18:25:37.111Z,28.27
2019-02-28T18:28:22.544Z,30.48
2019-02-28T18:31:13.569Z,30.72
2019-02-28T18:33:54.152Z,29.65
2019-02-28T18:36:29.878Z,28.20
2019-02-28T18:39:00.966Z,29.25
2019-02-28T18:41:32.676Z,28.80
2019-02-28T18:44:03.653Z,28.38
2019-02-28T18:46:34.571Z,27.77
2019-02-28T18:49:04.610Z,28.05
2019-02-28T18:51:34.607Z,25.97
2019-02-28T18:54:04.677Z,26.52
2019-02-28T18:56:36.799Z,27.32
2019-02-28T18:59:07.989Z,25.32
2019-02-28T19:01:38.289Z,26.02
2019-02-28T19:04:08.314Z,25.82
2019-02-28T19:06:38.569Z,24.70
2019-02-28T19:09:23.182Z,26.10
2019-02-28T19:14:23.279Z,25.68
2019-02-28T19:16:53.303Z,26.42
2019-02-28T19:19:23.325Z,19.23
2019-02-28T19:21:53.434Z,19.30
2019-02-28T19:24:23.435Z,15.78
2019-02-28T19:26:53.458Z,12.78
2019-02-28T19:29:23.775Z,14.78
2019-02-28T19:31:54.069Z,9.25
2019-02-28T19:34:24.165Z,7.25
2019-02-28T19:36:54.175Z,7.00
2019-02-28T19:39:25.637Z,5.58
2019-02-28T19:41:57.652Z,5.75
2019-02-28T19:44:30.211Z,5.95
2019-02-28T19:47:00.327Z,5.92
2019-02-28T19:49:30.329Z,4.92
2019-02-28T19:52:00.319Z,3.08
2019-02-28T19:54:30.591Z,3.10
2019-02-28T19:57:01.579Z,2.55
2019-02-28T19:59:31.670Z,2.30
2019-02-28T20:02:01.663Z,2.25
2019-02-28T20:04:31.982Z,2.10
2019-02-28T20:07:02.058Z,2.12
2019-02-28T20:09:32.065Z,2.30
2019-02-28T20:12:02.064Z,2.25
2019-02-28T20:14:33.159Z,2.47
2019-02-28T20:17:03.415Z,2.30
2019-02-28T20:19:33.534Z,2.77
2019-02-28T20:22:03.545Z,3.60
2019-02-28T20:24:33.546Z,3.50
2019-02-28T20:27:03.612Z,4.12
2019-02-28T20:29:33.918Z,3.98
2019-02-28T20:32:04.278Z,4.00
2019-02-28T20:34:36.296Z,5.12
2019-02-28T20:37:06.421Z,3.98
2019-02-28T20:39:36.437Z,3.50
2019-02-28T20:42:06.464Z,3.45
2019-02-28T20:44:38.977Z,3.50
2019-02-28T20:47:09.783Z,3.08
2019-02-28T20:49:40.297Z,3.52
2019-02-28T20:52:10.365Z,3.60
2019-02-28T20:54:40.657Z,3.47
2019-02-28T20:57:10.999Z,3.52
2019-02-28T20:59:41.136Z,3.70
2019-02-28T21:02:11.180Z,3.75
2019-02-28T21:04:41.703Z,3.50
2019-02-28T21:07:12.044Z,5.20
2019-02-28T21:09:44.950Z,5.10
2019-02-28T21:12:14.495Z,4.55
2019-02-28T21:14:44.650Z,5.33
2019-02-28T21:17:14.709Z,4.78
2019-02-28T21:19:44.711Z,3.58
2019-02-28T21:22:14.893Z,4.35
2019-02-28T21:24:46.583Z,8.58
2019-02-28T21:27:16.851Z,4.10
2019-02-28T21:29:47.185Z,3.75
2019-02-28T21:32:17.245Z,4.20
2019-02-28T21:34:47.521Z,4.08
2019-02-28T21:37:17.843Z,4.62
2019-02-28T21:39:48.193Z,5.30
2019-02-28T21:42:18.678Z,4.58
2019-02-28T21:44:49.026Z,4.15
2019-02-28T21:47:19.348Z,3.83
2019-02-28T21:49:52.965Z,4.87
2019-02-28T21:52:24.090Z,4.70
2019-02-28T21:54:54.428Z,4.33
2019-02-28T21:57:24.779Z,5.15
2019-02-28T21:59:55.168Z,4.30
2019-02-28T22:02:29.637Z,4.67
2019-02-28T22:04:59.726Z,4.85
2019-02-28T22:07:29.730Z,4.50
2019-02-28T22:09:59.732Z,4.22
2019-02-28T22:12:29.985Z,4.35
2019-02-28T22:15:00.327Z,3.72
2019-02-28T22:17:30.629Z,3.83
2019-02-28T22:20:00.980Z,4.10
2019-02-28T22:22:31.321Z,4.83
2019-02-28T22:25:01.664Z,4.28
2019-02-28T22:27:32.101Z,5.03
2019-02-28T22:30:04.094Z,5.28
2019-02-28T22:32:37.572Z,6.67
2019-02-28T22:35:09.294Z,7.35
2019-02-28T22:37:39.575Z,6.25
2019-02-28T22:40:09.951Z,6.97
2019-02-28T22:42:40.012Z,8.00
2019-02-28T22:45:10.057Z,9.70
2019-02-28T22:47:40.384Z,11.80
2019-02-28T22:50:10.756Z,12.15
2019-02-28T22:52:41.074Z,13.62
2019-02-28T22:55:11.139Z,13.95
2019-02-28T22:57:41.148Z,16.85
2019-02-28T23:00:32.128Z,17.73
2019-02-28T23:03:04.066Z,19.02
2019-02-28T23:05:34.443Z,20.92
2019-02-28T23:08:04.757Z,20.08
2019-02-28T23:10:34.833Z,20.17
2019-02-28T23:13:04.830Z,22.73
2019-02-28T23:15:36.631Z,22.32
2019-02-28T23:18:08.264Z,24.35
2019-02-28T23:20:38.591Z,24.20
2019-02-28T23:23:08.663Z,24.30
2019-02-28T23:25:38.685Z,25.10
2019-02-28T23:28:26.193Z,26.02
2019-02-28T23:31:16.239Z,26.57
2019-02-28T23:33:47.882Z,26.07
2019-02-28T23:36:18.171Z,27.52
2019-02-28T23:38:48.533Z,28.23
2019-02-28T23:41:19.816Z,28.38
2019-02-28T23:43:49.944Z,28.85
2019-02-28T23:46:20.180Z,28.50
2019-02-28T23:48:50.348Z,27.80
2019-02-28T23:51:20.349Z,27.65
2019-02-28T23:53:50.626Z,29.02
2019-02-28T23:56:20.697Z,29.27
2019-02-28T23:58:50.980Z,31.62
